Time;durP1;ratioP1;P1;durP2;ratioP2;P2;SDS_P1;SDS_P2;PMS_P1;PMS_P2;Temp;Humidity;BMP_temperature;BMP_pressure;BME280_temperature;BME280_humidity;BME280_pressure;Samples;Min_cycle;Max_cycle;Signal;HPM_P1;HPM_P2
2021/08/06 00:01:59;;;;;;;11.77;10.67;;;;;;;24.97;73.90;100298.91;5104476;27;103897;-56
2021/08/06 00:04:26;;;;;;;13.23;11.90;;;;;;;24.96;73.76;100306.47;5098293;27;102582;-56
2021/08/06 00:06:52;;;;;;;11.82;10.82;;;;;;;24.96;73.71;100303.69;5093461;27;102578;-56
2021/08/06 00:09:19;;;;;;;12.35;11.25;;;;;;;24.96;73.81;100303.69;5103272;27;102142;-56
2021/08/06 00:11:46;;;;;;;12.13;11.05;;;;;;;24.96;73.72;100297.31;5092540;27;104124;-57
2021/08/06 00:14:12;;;;;;;12.25;11.15;;;;;;;24.94;73.72;100300.47;5103462;27;102820;-56
2021/08/06 00:16:44;;;;;;;11.40;10.40;;;;;;;24.94;73.71;100290.13;5099684;27;102147;-56
2021/08/06 00:19:10;;;;;;;11.73;10.73;;;;;;;24.94;73.64;100290.13;5103771;27;102702;-57
2021/08/06 00:21:38;;;;;;;12.02;10.90;;;;;;;24.93;73.88;100271.81;5103368;27;104912;-57
2021/08/06 00:24:05;;;;;;;12.10;10.95;;;;;;;24.94;73.81;100261.50;5094626;27;102510;-56
2021/08/06 00:26:32;;;;;;;12.32;11.18;;;;;;;24.93;73.58;100259.91;5102280;27;102257;-56
2021/08/06 00:29:00;;;;;;;11.55;10.57;;;;;;;24.93;73.67;100255.13;5100907;27;102272;-56
2021/08/06 00:31:26;;;;;;;11.73;10.80;;;;;;;24.93;73.67;100243.19;5104158;27;103938;-56
2021/08/06 00:33:54;;;;;;;10.88;9.98;;;;;;;24.93;73.91;100229.28;5106558;27;102481;-57
2021/08/06 00:36:21;;;;;;;12.05;10.98;;;;;;;24.92;73.79;100234.03;5099113;27;102583;-56
2021/08/06 00:38:48;;;;;;;11.07;10.07;;;;;;;24.92;73.92;100227.69;5091761;27;102722;-56
2021/08/06 00:41:15;;;;;;;11.23;10.25;;;;;;;24.92;73.91;100219.34;5106014;27;104081;-57
2021/08/06 00:43:43;;;;;;;11.63;10.63;;;;;;;24.92;73.95;100219.34;5095637;27;102672;-57
2021/08/06 00:46:13;;;;;;;11.80;10.80;;;;;;;24.92;73.75;100222.91;5097327;27;102466;-57
2021/08/06 00:48:40;;;;;;;11.55;10.55;;;;;;;24.92;73.74;100252.75;5092871;27;102906;-57
2021/08/06 00:51:08;;;;;;;11.40;10.50;;;;;;;24.92;73.68;100255.53;5093753;27;102783;-56
2021/08/06 00:53:37;;;;;;;10.52;9.63;;;;;;;24.92;73.77;100252.75;5101540;27;102767;-56
2021/08/06 00:56:04;;;;;;;10.75;9.85;;;;;;;24.92;73.94;100258.31;5103523;27;102331;-57
2021/08/06 00:58:31;;;;;;;10.95;9.88;;;;;;;24.91;73.78;100251.91;5104385;27;102620;-56
2021/08/06 01:00:58;;;;;;;11.18;10.18;;;;;;;24.91;73.84;100251.13;5097389;27;104378;-57
2021/08/06 01:03:26;;;;;;;10.60;9.57;;;;;;;24.91;73.67;100251.13;5106659;27;102658;-56
2021/08/06 01:06:06;;;;;;;11.05;9.98;;;;;;;24.90;73.63;100241.97;5101398;27;102322;-56
2021/08/06 01:08:42;;;;;;;10.88;9.98;;;;;;;24.91;73.80;100223.28;5100141;27;102243;-56
2021/08/06 01:11:09;;;;;;;10.85;9.95;;;;;;;24.90;73.92;100232.81;5103688;27;103921;-57
2021/08/06 01:13:57;;;;;;;10.77;9.77;;;;;;;24.90;73.64;100227.25;5105021;27;102635;-56
2021/08/06 01:16:35;;;;;;;11.52;10.57;;;;;;;24.89;73.63;100206.16;5094625;27;102422;-56
2021/08/06 01:19:12;;;;;;;11.20;10.20;;;;;;;24.88;73.67;100202.59;5093502;27;102572;-57
2021/08/06 01:21:42;;;;;;;10.77;9.77;;;;;;;24.88;73.87;100202.59;5099946;27;103911;-56
2021/08/06 01:24:13;;;;;;;10.77;9.88;;;;;;;24.88;73.59;100216.50;5101932;27;102218;-56
2021/08/06 01:26:42;;;;;;;10.13;9.25;;;;;;;24.89;73.66;100208.97;5099116;27;102817;-56
2021/08/06 01:29:10;;;;;;;11.00;10.10;;;;;;;24.88;73.82;100204.56;5089529;27;103855;-56
2021/08/06 01:31:37;;;;;;;10.70;9.83;;;;;;;24.88;73.83;100196.19;5104217;27;104120;-57
2021/08/06 01:34:06;;;;;;;10.70;9.80;;;;;;;24.88;73.79;100198.97;5104527;27;102536;-56
2021/08/06 01:36:32;;;;;;;11.38;10.23;;;;;;;24.87;73.86;100198.19;5097022;27;103028;-56
2021/08/06 01:38:59;;;;;;;10.02;9.13;;;;;;;24.87;73.69;100183.47;5101998;27;102361;-56
2021/08/06 01:41:33;;;;;;;10.20;9.40;;;;;;;24.87;73.59;100184.28;5106100;27;104125;-56
2021/08/06 01:44:10;;;;;;;10.07;9.25;;;;;;;24.88;73.86;100182.28;5107830;27;102668;-56
2021/08/06 01:46:43;;;;;;;11.05;9.95;;;;;;;24.87;73.69;100164.78;5097567;27;102820;-56
2021/08/06 01:49:13;;;;;;;9.98;9.05;;;;;;;24.85;73.83;100149.69;5104527;27;102624;-56
2021/08/06 01:51:43;;;;;;;10.20;9.30;;;;;;;24.85;73.81;100147.69;5106258;27;103785;-56
2021/08/06 01:54:11;;;;;;;10.43;9.52;;;;;;;24.86;73.58;100142.91;5105579;27;102521;-56
2021/08/06 01:56:39;;;;;;;;;;;;;;;24.85;73.87;100144.09;5103393;27;102446;-56
2021/08/06 01:59:08;;;;;;;9.90;8.90;;;;;;;24.84;73.63;100132.16;5104715;27;102550;-56
2021/08/06 02:01:37;;;;;;;9.68;8.88;;;;;;;24.84;73.77;100134.94;5111554;27;104063;-56
2021/08/06 02:04:04;;;;;;;9.93;9.13;;;;;;;24.84;73.76;100123.81;5102507;27;102440;-57
2021/08/06 02:06:32;;;;;;;10.30;9.35;;;;;;;24.85;73.75;100124.63;5103322;27;102591;-56
2021/08/06 02:08:59;;;;;;;10.57;9.57;;;;;;;24.84;74.04;100118.25;5100833;27;102419;-57
2021/08/06 02:11:27;;;;;;;9.67;8.90;;;;;;;24.84;73.88;100106.31;5106835;27;104457;-57
2021/08/06 02:13:55;;;;;;;10.90;9.90;;;;;;;24.84;74.00;100103.53;5095127;27;102390;-56
2021/08/06 02:16:25;;;;;;;9.88;9.07;;;;;;;24.84;73.97;100084.03;5099086;27;102412;-57
2021/08/06 02:18:54;;;;;;;9.95;9.15;;;;;;;24.84;73.78;100095.19;5102819;27;102475;-56
2021/08/06 02:21:25;;;;;;;9.70;8.90;;;;;;;24.83;73.80;100093.59;5096505;27;103979;-57
2021/08/06 02:23:55;;;;;;;9.48;8.77;;;;;;;24.84;73.80;100100.75;5103798;27;102099;-56
2021/08/06 02:26:22;;;;;;;9.88;9.00;;;;;;;24.83;74.03;100083.25;5100846;27;102175;-56
2021/08/06 02:28:50;;;;;;;9.77;8.98;;;;;;;24.83;73.92;100088.03;5106609;27;102584;-56
2021/08/06 02:31:19;;;;;;;9.85;9.05;;;;;;;24.83;74.00;100085.22;5095485;27;103904;-57
2021/08/06 02:33:48;;;;;;;9.68;8.88;;;;;;;24.83;73.98;100099.16;5112834;27;102656;-57
2021/08/06 02:36:16;;;;;;;10.05;9.15;;;;;;;24.82;73.71;100098.34;5092924;27;102585;-57
2021/08/06 02:38:44;;;;;;;9.25;8.52;;;;;;;24.82;73.83;100100.34;5093919;27;102592;-56
2021/08/06 02:41:10;;;;;;;9.68;8.88;;;;;;;24.82;73.97;100108.69;5108951;27;103902;-56
2021/08/06 02:43:39;;;;;;;9.38;8.60;;;;;;;24.82;73.81;100092.00;5091644;27;101912;-56
2021/08/06 02:46:06;;;;;;;9.55;8.75;;;;;;;24.82;73.93;100089.22;5099663;27;103474;-56
2021/08/06 02:48:33;;;;;;;9.73;8.93;;;;;;;24.82;73.75;100083.66;5097416;27;106438;-56
2021/08/06 02:51:01;;;;;;;9.23;8.43;;;;;;;24.81;73.82;100068.94;5101777;27;104284;-56
2021/08/06 02:53:28;;;;;;;9.75;8.80;;;;;;;24.81;73.82;100055.03;5105469;27;102497;-57
2021/08/06 02:55:54;;;;;;;10.10;9.20;;;;;;;24.81;73.89;100056.97;5093224;27;102287;-56
2021/08/06 02:58:21;;;;;;;10.90;9.90;;;;;;;24.79;73.85;100071.28;5100917;27;102630;-56
2021/08/06 03:00:48;;;;;;;10.13;9.15;;;;;;;24.80;74.18;100066.53;5096066;27;104049;-56
2021/08/06 03:03:14;;;;;;;9.60;8.70;;;;;;;24.81;74.15;100065.31;5094706;27;102545;-56
2021/08/06 03:05:41;;;;;;;9.48;8.68;;;;;;;24.82;74.15;100066.94;5100683;27;102426;-56
2021/08/06 03:08:10;;;;;;;9.77;8.98;;;;;;;24.82;74.15;100069.72;5103457;27;102487;-56
2021/08/06 03:10:37;;;;;;;9.85;9.02;;;;;;;24.81;73.90;100062.53;5093912;27;103915;-56
2021/08/06 03:13:04;;;;;;;10.32;9.50;;;;;;;24.82;74.09;100064.16;5093132;27;102442;-57
2021/08/06 03:15:30;;;;;;;9.35;8.55;;;;;;;24.82;74.09;100059.41;5095449;27;102550;-56
2021/08/06 03:17:57;;;;;;;11.05;8.38;;;;;;;24.82;74.09;100058.59;5107334;27;102494;-57
2021/08/06 03:20:25;;;;;;;10.68;9.55;;;;;;;24.81;74.23;100062.53;5100097;27;103901;-56
2021/08/06 03:22:52;;;;;;;8.80;8.15;;;;;;;24.80;74.40;100056.19;5096366;27;102809;-56
2021/08/06 03:25:20;;;;;;;9.77;8.93;;;;;;;24.80;74.31;100058.97;5098074;27;102656;-57
2021/08/06 03:27:47;;;;;;;9.63;8.82;;;;;;;24.81;74.49;100056.97;5092556;27;102510;-57
2021/08/06 03:30:14;;;;;;;9.88;9.07;;;;;;;24.80;74.04;100061.75;5100906;27;104056;-56
2021/08/06 03:32:43;;;;;;;9.55;8.75;;;;;;;24.81;74.16;100046.66;5091610;27;102506;-57
2021/08/06 03:35:11;;;;;;;9.52;8.63;;;;;;;24.81;74.33;100045.84;5098702;27;102631;-56
2021/08/06 03:37:37;;;;;;;;;;;;;;;24.82;74.30;100041.91;5100603;27;102370;-57
2021/08/06 03:40:05;;;;;;;9.63;8.77;;;;;;;24.81;74.44;100032.75;5099309;27;103904;-56
2021/08/06 03:42:33;;;;;;;9.65;8.85;;;;;;;24.81;74.31;100009.66;5094037;27;102639;-56
2021/08/06 03:45:01;;;;;;;9.32;8.60;;;;;;;24.81;74.31;100006.88;5107591;27;103301;-56
2021/08/06 03:47:27;;;;;;;9.48;8.60;;;;;;;24.80;74.47;99994.16;5095248;27;102411;-57
2021/08/06 03:49:55;;;;;;;10.88;9.82;;;;;;;24.81;74.68;99992.97;5107440;27;103999;-56
2021/08/06 03:52:22;;;;;;;10.10;9.05;;;;;;;24.82;74.92;99991.81;5108436;27;102433;-56
2021/08/06 03:54:48;;;;;;;10.00;9.20;;;;;;;24.82;74.47;99997.38;5099948;27;102276;-56
2021/08/06 03:57:15;;;;;;;9.18;8.38;;;;;;;24.81;74.58;99990.19;5096302;27;102201;-57
2021/08/06 03:59:43;;;;;;;10.30;9.05;;;;;;;24.82;74.59;100002.94;5102705;27;103795;-56
2021/08/06 04:02:09;;;;;;;9.60;8.80;;;;;;;24.81;74.68;100004.94;5097095;27;102164;-57
2021/08/06 04:04:36;;;;;;;9.35;8.55;;;;;;;24.82;74.38;100009.31;5105396;27;102508;-56
2021/08/06 04:07:03;;;;;;;9.65;8.85;;;;;;;24.81;74.37;100018.84;5101084;27;102593;-56
2021/08/06 04:09:30;;;;;;;8.95;8.25;;;;;;;24.83;74.31;100022.03;5092211;27;102972;-56
2021/08/06 04:11:57;;;;;;;9.38;8.57;;;;;;;24.82;74.17;100020.44;5099084;27;102547;-61
2021/08/06 04:14:23;;;;;;;9.75;8.95;;;;;;;24.83;74.12;100015.66;5094700;27;102157;-56
2021/08/06 04:16:52;;;;;;;10.15;9.25;;;;;;;24.83;74.17;100021.22;5104479;27;102188;-57
2021/08/06 04:19:20;;;;;;;9.35;8.55;;;;;;;24.83;74.36;100021.22;5105829;27;104370;-57
2021/08/06 04:21:46;;;;;;;9.48;8.63;;;;;;;24.84;74.31;100014.47;5095729;27;102214;-56
2021/08/06 04:24:13;;;;;;;10.10;9.27;;;;;;;24.84;74.21;100017.25;5091659;27;102446;-57
2021/08/06 04:26:39;;;;;;;9.52;8.73;;;;;;;24.84;74.22;100014.47;5108696;27;102415;-57
2021/08/06 04:29:06;;;;;;;9.60;8.68;;;;;;;24.84;74.35;100022.81;5097056;27;104048;-56
2021/08/06 04:31:33;;;;;;;9.90;9.02;;;;;;;24.84;74.42;100028.38;5095508;27;103457;-57
2021/08/06 04:34:01;;;;;;;9.85;8.95;;;;;;;24.86;74.32;100031.59;5101920;27;102491;-56
2021/08/06 04:36:28;;;;;;;9.85;8.98;;;;;;;24.85;74.30;100032.78;5095731;27;102893;-56
2021/08/06 04:38:54;;;;;;;9.88;8.82;;;;;;;24.83;74.43;100038.72;5090726;27;104192;-56
2021/08/06 04:41:22;;;;;;;9.88;9.07;;;;;;;24.85;74.50;100041.13;5096050;27;102384;-56
2021/08/06 04:43:48;;;;;;;9.32;8.32;;;;;;;24.85;74.40;100035.56;5095493;27;104086;-57
2021/08/06 04:46:15;;;;;;;9.75;8.85;;;;;;;24.85;74.24;100039.16;5097132;27;102611;-57
2021/08/06 04:48:41;;;;;;;10.55;9.63;;;;;;;24.87;74.16;100061.00;5090208;27;103933;-56
2021/08/06 04:51:09;;;;;;;10.15;8.98;;;;;;;24.86;74.28;100071.34;5095632;27;102344;-57
2021/08/06 04:53:36;;;;;;;9.20;8.40;;;;;;;24.86;74.48;100070.56;5092890;27;102085;-57
2021/08/06 04:56:03;;;;;;;9.57;8.77;;;;;;;24.86;74.42;100082.47;5104778;27;102567;-57
2021/08/06 04:58:30;;;;;;;9.63;8.70;;;;;;;24.85;74.35;100083.69;5093797;27;104046;-57
2021/08/06 05:00:57;;;;;;;10.00;9.10;;;;;;;24.84;74.36;100073.72;5097813;27;102862;-57
2021/08/06 05:03:23;;;;;;;9.23;8.52;;;;;;;24.85;74.56;100080.09;5098313;27;102280;-56
2021/08/06 05:05:50;;;;;;;9.82;9.02;;;;;;;24.84;74.29;100075.69;5100235;27;102277;-56
2021/08/06 05:08:19;;;;;;;9.80;8.95;;;;;;;24.84;74.26;100067.34;5095677;27;103689;-56
2021/08/06 05:10:45;;;;;;;9.77;8.97;;;;;;;24.84;74.27;100073.72;5110535;27;102163;-56
2021/08/06 05:13:12;;;;;;;9.57;8.73;;;;;;;24.84;74.33;100072.91;5108830;27;102624;-57
2021/08/06 05:15:39;;;;;;;10.00;9.20;;;;;;;24.84;74.20;100061.78;5102161;27;102570;-56
2021/08/06 05:18:05;;;;;;;10.13;9.23;;;;;;;24.85;74.34;100057.84;5100123;27;103780;-57
2021/08/06 05:20:33;;;;;;;9.73;8.93;;;;;;;24.84;74.31;100067.34;5104913;27;102683;-56
2021/08/06 05:22:59;;;;;;;9.75;8.95;;;;;;;24.85;74.43;100057.84;5108479;27;102422;-56
2021/08/06 05:25:28;;;;;;;9.80;8.90;;;;;;;24.85;74.33;100057.84;5101047;27;102446;-56
2021/08/06 05:27:54;;;;;;;9.45;8.65;;;;;;;24.85;74.47;100057.84;5093839;27;103945;-57
2021/08/06 05:30:22;;;;;;;9.43;8.63;;;;;;;24.85;74.44;100057.84;5103996;27;102590;-57
2021/08/06 05:32:49;;;;;;;10.27;9.37;;;;;;;24.87;74.25;100061.00;5105010;27;102653;-56
2021/08/06 05:35:15;;;;;;;9.68;8.68;;;;;;;24.87;74.17;100049.88;5106600;27;102540;-57
2021/08/06 05:37:42;;;;;;;10.00;9.00;;;;;;;24.87;74.15;100055.44;5102560;27;103863;-57
2021/08/06 05:40:10;;;;;;;9.77;8.90;;;;;;;24.87;74.33;100042.34;5102741;27;102467;-57
2021/08/06 05:42:38;;;;;;;9.43;8.60;;;;;;;24.89;74.16;100041.97;5098422;27;102375;-57
2021/08/06 05:45:06;;;;;;;9.30;8.50;;;;;;;24.90;74.09;100040.78;5099631;27;102687;-57
2021/08/06 05:47:41;;;;;;;9.23;8.48;;;;;;;24.92;73.91;100027.28;5098651;27;104154;-57
2021/08/06 05:50:09;;;;;;;9.25;8.35;;;;;;;24.93;74.07;100032.44;5098347;27;103199;-57
2021/08/06 05:52:36;;;;;;;8.17;7.47;;;;;;;24.95;74.08;100034.84;5110381;27;102943;-57
2021/08/06 05:55:02;;;;;;;9.27;8.48;;;;;;;24.96;73.80;100039.25;5098767;27;102344;-58
2021/08/06 05:57:29;;;;;;;9.80;8.07;;;;;;;24.97;74.10;100034.47;5103502;27;103904;-57
2021/08/06 05:59:57;;;;;;;8.98;8.07;;;;;;;24.98;73.84;100036.84;5102742;27;102492;-57
2021/08/06 12:55:39;;;;;;;24.15;10.40;;;;;;;24.58;70.19;100038.50;5092888;27;103359;-74
2021/08/06 12:58:18;;;;;;;16.13;9.05;;;;;;;24.60;70.22;100055.63;5089300;27;102821;-74
2021/08/06 13:00:47;;;;;;;17.63;9.20;;;;;;;24.58;70.87;100037.69;5081055;27;103966;-75
2021/08/06 13:03:14;;;;;;;;;;;;;;;24.59;70.87;100012.25;5078268;27;102648;-76
2021/08/06 13:05:57;;;;;;;19.40;8.90;;;;;;;24.53;70.96;100016.59;5085236;27;103444;-74
2021/08/06 13:08:26;;;;;;;22.25;8.60;;;;;;;24.50;71.45;100024.91;5089317;27;102348;-75
2021/08/06 13:11:09;;;;;;;20.75;8.25;;;;;;;24.50;71.23;100020.16;5086293;27;104087;-74
2021/08/06 13:13:37;;;;;;;20.45;7.88;;;;;;;24.54;70.92;100026.53;5086425;27;102397;-74
2021/08/06 13:16:05;;;;;;;18.55;7.20;;;;;;;24.52;71.40;100031.66;5087333;27;102696;-73
2021/08/06 13:18:34;;;;;;;14.73;6.57;;;;;;;24.51;71.21;100029.28;5084987;27;102154;-74
2021/08/06 13:21:01;;;;;;;13.98;7.18;;;;;;;24.47;71.11;100037.59;5089433;27;103951;-74
2021/08/06 13:23:28;;;;;;;17.67;6.85;;;;;;;24.46;71.52;100047.13;5087412;27;101990;-73
2021/08/06 13:25:57;;;;;;;13.93;6.30;;;;;;;24.47;71.59;100079.31;5085949;27;103938;-73
2021/08/06 13:28:25;;;;;;;18.10;7.32;;;;;;;24.47;71.74;100081.31;5086461;27;102190;-74
2021/08/06 13:30:52;;;;;;;13.18;6.50;;;;;;;24.47;71.52;100054.28;5089922;27;103683;-73
2021/08/06 13:33:19;;;;;;;12.68;6.90;;;;;;;24.45;71.94;100042.72;5087504;27;102548;-72
2021/08/06 13:35:46;;;;;;;15.13;6.72;;;;;;;24.42;72.03;100043.50;5085645;27;102180;-74
2021/08/06 13:38:12;;;;;;;16.17;6.60;;;;;;;24.42;72.31;100074.09;5086245;27;102331;-74
2021/08/06 13:40:39;;;;;;;11.50;5.72;;;;;;;24.46;71.60;100108.31;5084864;27;103824;-72
2021/08/06 13:43:07;;;;;;;9.38;5.70;;;;;;;24.43;72.02;100125.75;5082997;27;102630;-73
2021/08/06 13:45:35;;;;;;;14.27;6.40;;;;;;;24.42;72.05;100108.28;5070415;27;102601;-74
2021/08/06 13:48:02;;;;;;;16.02;7.00;;;;;;;24.41;72.26;100083.59;5070273;27;102708;-73
2021/08/06 13:50:29;;;;;;;10.95;4.95;;;;;;;24.43;71.97;100056.22;5071292;27;104137;-73
2021/08/06 13:52:55;;;;;;;13.43;5.72;;;;;;;24.41;72.03;100056.59;5069667;27;102364;-73
2021/08/06 13:55:22;;;;;;;14.55;6.95;;;;;;;24.40;71.77;100031.97;5059843;27;102194;-73
2021/08/06 13:57:49;;;;;;;10.90;5.28;;;;;;;24.38;71.70;100029.53;5049851;27;102101;-74
2021/08/06 14:00:17;;;;;;;12.63;5.68;;;;;;;24.37;71.77;100013.22;5050149;27;103895;-74
2021/08/06 14:02:44;;;;;;;9.23;5.53;;;;;;;24.36;71.84;100008.84;5056467;27;102369;-73
2021/08/06 14:05:11;;;;;;;12.02;6.03;;;;;;;24.34;71.89;100012.03;5055143;27;102454;-73
2021/08/06 14:07:38;;;;;;;11.13;5.28;;;;;;;24.36;71.59;100025.53;5056753;27;102294;-72
2021/08/06 14:10:06;;;;;;;8.00;5.35;;;;;;;24.35;71.51;100005.28;5051110;27;104231;-72
2021/08/06 14:12:33;;;;;;;8.55;4.80;;;;;;;24.37;71.55;99993.75;5048467;27;102498;-72
2021/08/06 14:15:00;;;;;;;9.18;5.45;;;;;;;24.35;71.67;100004.47;5050837;27;102298;-72
2021/08/06 14:17:28;;;;;;;11.00;4.78;;;;;;;24.32;71.55;99974.66;5055514;27;102533;-72
2021/08/06 14:19:55;;;;;;;10.48;5.60;;;;;;;24.33;71.68;99981.78;5053720;27;103856;-72
2021/08/06 14:22:22;;;;;;;9.02;4.45;;;;;;;24.34;71.30;99977.81;5055699;27;102301;-72
2021/08/06 14:24:49;;;;;;;10.30;4.63;;;;;;;24.32;71.50;99978.22;5054716;27;102417;-72
2021/08/06 14:27:16;;;;;;;12.68;4.85;;;;;;;24.32;71.16;99974.66;5056477;27;102437;-72
2021/08/06 14:29:43;;;;;;;11.88;6.57;;;;;;;24.28;71.56;99974.63;5055208;27;104270;-71
2021/08/06 14:32:09;;;;;;;10.73;7.13;;;;;;;24.28;71.20;99960.72;5048517;27;102322;-71
2021/08/06 14:34:37;;;;;;;8.07;6.53;;;;;;;24.27;71.14;99956.34;5052865;27;104641;-70
2021/08/06 14:37:03;;;;;;;15.20;6.60;;;;;;;24.32;71.44;99950.41;5049036;27;102221;-66
2021/08/06 14:39:30;;;;;;;11.02;6.38;;;;;;;24.31;71.49;99945.25;5050622;27;103996;-68
2021/08/06 14:41:58;;;;;;;9.60;6.20;;;;;;;24.35;71.43;99943.31;5064423;27;102981;-68
2021/08/06 14:44:25;;;;;;;13.95;6.60;;;;;;;24.36;71.37;99937.34;5059006;27;102370;-67
2021/08/06 14:46:51;;;;;;;11.13;6.57;;;;;;;24.38;71.44;99940.56;5056585;27;102623;-68
2021/08/06 14:49:18;;;;;;;11.52;6.10;;;;;;;24.40;71.40;99943.75;5043787;27;104292;-68
2021/08/06 14:51:46;;;;;;;9.30;5.85;;;;;;;24.41;71.56;99944.56;5052301;27;102292;-68
2021/08/06 14:54:13;;;;;;;9.43;5.83;;;;;;;24.42;71.42;99946.97;5050453;27;102503;-68
2021/08/06 14:56:43;;;;;;;9.45;6.25;;;;;;;24.44;71.38;99938.22;5068940;27;102814;-69
2021/08/06 14:59:09;;;;;;;9.52;5.80;;;;;;;24.44;71.59;99952.13;5063624;27;103788;-69
2021/08/06 15:01:36;;;;;;;9.77;6.53;;;;;;;24.45;71.53;99962.06;5055160;27;102673;-69
2021/08/06 15:04:03;;;;;;;8.98;6.22;;;;;;;24.44;71.62;99961.28;5053652;27;102380;-69
2021/08/06 15:06:29;;;;;;;8.48;5.68;;;;;;;24.47;71.64;99968.06;5047147;27;102632;-68
2021/08/06 15:08:58;;;;;;;10.30;6.13;;;;;;;24.47;71.61;99959.72;5053150;27;103986;-68
2021/08/06 15:11:25;;;;;;;11.27;6.47;;;;;;;24.45;71.91;99962.06;5056628;27;102197;-68
2021/08/06 15:13:51;;;;;;;10.10;7.00;;;;;;;24.47;71.91;99973.63;5047934;27;102643;-68
2021/08/06 15:16:18;;;;;;;10.82;6.68;;;;;;;24.47;72.04;99984.75;5049164;27;102413;-68
2021/08/06 15:18:49;;;;;;;9.27;6.43;;;;;;;24.48;71.83;100002.22;5050304;27;103924;-68
2021/08/06 15:21:16;;;;;;;11.73;6.97;;;;;;;24.48;72.13;100028.06;5054516;27;102050;-68
2021/08/06 15:23:43;;;;;;;12.60;7.28;;;;;;;24.49;72.04;100048.31;5055350;27;102196;-68
2021/08/06 15:26:11;;;;;;;11.02;6.18;;;;;;;24.48;71.84;100055.88;5055352;27;102536;-67
2021/08/06 15:28:40;;;;;;;12.40;6.97;;;;;;;24.48;72.03;100067.00;5054323;27;103222;-68
2021/08/06 15:31:07;;;;;;;9.05;6.50;;;;;;;24.48;72.14;100050.31;5040888;27;102701;-68
2021/08/06 15:33:34;;;;;;;10.48;6.45;;;;;;;24.47;72.27;100023.69;5043772;27;102487;-68
2021/08/06 15:36:00;;;;;;;9.77;6.30;;;;;;;24.47;72.09;100012.56;5054597;27;102294;-68
2021/08/06 15:38:27;;;;;;;11.07;6.68;;;;;;;24.48;72.22;100014.16;5049683;27;103971;-67
2021/08/06 15:40:54;;;;;;;8.77;6.30;;;;;;;24.48;72.28;100025.28;5053088;27;102809;-67
2021/08/06 15:43:23;;;;;;;11.10;6.70;;;;;;;24.49;72.23;100006.59;5050495;27;102290;-68
2021/08/06 15:45:49;;;;;;;13.23;7.50;;;;;;;24.46;72.46;99947.00;5058304;27;102160;-68
2021/08/06 15:48:18;;;;;;;16.05;8.15;;;;;;;24.46;72.13;99921.97;5052384;27;103938;-68
2021/08/06 15:50:44;;;;;;;;;;;;;;;24.46;72.12;99908.06;5055975;27;102393;-69
2021/08/06 15:53:11;;;;;;;10.10;6.88;;;;;;;24.47;72.06;99908.84;5056560;27;103534;-67
2021/08/06 15:55:38;;;;;;;9.40;6.70;;;;;;;24.47;72.01;99892.16;5061692;27;102676;-68
2021/08/06 15:58:04;;;;;;;11.45;6.45;;;;;;;24.46;72.18;99891.38;5047425;27;103886;-67
2021/08/06 16:00:33;;;;;;;10.38;6.38;;;;;;;24.45;72.26;99904.50;5048135;27;102129;-67
2021/08/06 16:03:00;;;;;;;9.30;6.07;;;;;;;24.47;72.02;99892.97;5046189;27;102449;-67
2021/08/06 16:05:27;;;;;;;9.45;5.90;;;;;;;24.45;71.62;99890.59;5052041;27;102228;-66
2021/08/06 16:07:53;;;;;;;9.57;6.13;;;;;;;24.43;71.88;99878.25;5051809;27;103950;-66
2021/08/06 16:10:20;;;;;;;7.45;6.00;;;;;;;24.42;71.94;99871.88;5048625;27;102504;-67
2021/08/06 16:12:46;;;;;;;9.43;6.20;;;;;;;24.43;72.11;99889.38;5050519;27;102477;-66
2021/08/06 16:15:13;;;;;;;10.05;5.75;;;;;;;24.43;71.91;99875.47;5062187;27;102436;-66
2021/08/06 16:17:42;;;;;;;8.82;6.25;;;;;;;24.42;71.61;99893.34;5053664;27;102482;-67
2021/08/06 16:20:09;;;;;;;9.55;6.00;;;;;;;24.40;71.90;99887.34;5055086;27;103335;-67
2021/08/06 16:22:36;;;;;;;8.95;6.38;;;;;;;24.41;71.84;99911.19;5053616;27;102663;-67
2021/08/06 16:25:04;;;;;;;8.73;6.20;;;;;;;24.39;71.90;99903.25;5055406;27;102233;-67
2021/08/06 16:27:31;;;;;;;8.57;6.10;;;;;;;24.39;72.11;99902.41;5051281;27;103937;-67
2021/08/06 16:29:59;;;;;;;8.95;6.18;;;;;;;24.40;71.92;99898.47;5049037;27;102403;-67
2021/08/06 16:32:26;;;;;;;12.23;6.80;;;;;;;24.40;72.00;99881.78;5048821;27;102510;-67
2021/08/06 16:34:54;;;;;;;9.38;6.45;;;;;;;24.40;72.02;99873.44;5033590;27;102482;-65
2021/08/06 16:37:20;;;;;;;7.97;6.03;;;;;;;24.39;71.97;99878.22;5054989;27;104279;-65
2021/08/06 16:39:47;;;;;;;7.28;5.57;;;;;;;24.41;71.89;99883.38;5065606;27;102513;-65
2021/08/06 16:42:16;;;;;;;8.88;6.20;;;;;;;24.41;71.70;99888.94;5051488;27;102495;-65
2021/08/06 16:44:42;;;;;;;;;;;;;;;24.40;71.79;99895.69;5053041;27;104993;-65
2021/08/06 16:47:09;;;;;;;7.20;6.10;;;;;;;24.42;71.99;99901.69;5044330;27;104032;-73
2021/08/06 16:49:36;;;;;;;14.35;6.25;;;;;;;24.37;71.13;99919.47;5048134;27;102460;-58
2021/08/06 16:52:05;;;;;;;18.02;5.97;;;;;;;24.30;71.11;99901.94;5048311;27;102509;-60
2021/08/06 16:54:32;;;;;;;13.82;6.78;;;;;;;24.27;71.02;99899.91;5051993;27;102568;-62
2021/08/06 16:56:58;;;;;;;15.68;6.93;;;;;;;24.26;70.59;99926.13;5042742;27;104195;-60
2021/08/06 16:59:25;;;;;;;19.75;7.40;;;;;;;24.18;71.03;99903.03;5049780;27;103208;-60
2021/08/06 17:01:52;;;;;;;19.15;7.80;;;;;;;24.08;70.80;99918.41;5051552;27;102301;-59
2021/08/06 17:04:19;;;;;;;32.13;8.48;;;;;;;24.09;71.35;99920.03;5051731;27;102144;-56
2021/08/06 17:06:46;;;;;;;25.88;8.10;;;;;;;24.08;71.36;99910.06;5048790;27;103873;-53
2021/08/06 17:09:14;;;;;;;31.50;9.20;;;;;;;24.09;72.16;99900.56;5051886;27;102348;-61
2021/08/06 17:11:41;;;;;;;25.63;9.27;;;;;;;24.09;71.50;99895.00;5052526;27;102500;-61
2021/08/06 17:14:07;;;;;;;24.63;8.75;;;;;;;24.06;71.69;99881.06;5045274;27;102300;-61
2021/08/06 17:16:36;;;;;;;49.33;10.18;;;;;;;24.06;72.35;99883.84;5044863;27;104701;-61
2021/08/06 17:19:02;;;;;;;;;;;;;;;24.10;72.08;99866.03;5058490;22;102452;-71
2021/08/06 17:21:29;;;;;;;19.17;7.72;;;;;;;24.12;72.53;99866.41;5002783;28;102316;-73
2021/08/06 17:23:56;;;;;;;16.40;8.25;;;;;;;24.10;72.52;99849.34;5011860;28;104422;-77
2021/08/06 17:26:24;;;;;;;17.17;7.90;;;;;;;24.13;72.56;99847.78;5009232;28;104185;-78
2021/08/06 17:28:51;;;;;;;15.55;7.90;;;;;;;24.14;72.31;99852.94;5005197;28;102010;-78
2021/08/06 17:31:18;;;;;;;14.43;7.85;;;;;;;24.13;72.74;99840.25;5006807;28;102161;-79
2021/08/06 17:33:45;;;;;;;12.13;7.10;;;;;;;24.16;72.80;99856.16;5015701;28;102992;-77
2021/08/06 17:36:12;;;;;;;14.65;7.93;;;;;;;24.18;72.40;99853.78;5007852;28;105032;-77
2021/08/06 17:38:39;;;;;;;14.77;7.70;;;;;;;24.14;72.87;99855.72;5014723;28;103246;-77
2021/08/06 17:41:05;;;;;;;11.63;6.65;;;;;;;24.15;72.94;99854.53;5012522;28;102494;-76
2021/08/06 17:43:33;;;;;;;10.27;7.03;;;;;;;24.16;72.80;99861.72;5018502;28;102250;-79
2021/08/06 17:46:01;;;;;;;10.40;7.27;;;;;;;24.15;72.74;99864.88;5015843;28;103930;-77
2021/08/06 17:48:29;;;;;;;13.75;7.20;;;;;;;24.13;72.96;99879.16;5015124;28;102129;-77
2021/08/06 17:50:56;;;;;;;9.65;7.13;;;;;;;24.15;73.30;99906.56;5014783;28;102184;-79
2021/08/06 17:53:23;;;;;;;13.73;7.47;;;;;;;24.16;72.98;99908.97;5016005;28;102140;-78
2021/08/06 17:55:51;;;;;;;8.73;6.93;;;;;;;24.16;73.15;99916.50;5010214;28;103909;-77
2021/08/06 17:58:18;;;;;;;10.52;6.97;;;;;;;24.15;73.20;99910.13;5011109;28;103443;-78
2021/08/06 18:00:46;;;;;;;13.07;7.38;;;;;;;24.14;73.38;99925.22;5010562;28;102919;-78
2021/08/06 18:03:13;;;;;;;14.18;6.90;;;;;;;24.16;73.04;99934.00;5008510;28;102567;-78
2021/08/06 18:05:40;;;;;;;13.20;7.13;;;;;;;24.17;73.36;99927.25;5013702;28;103973;-76
2021/08/06 18:08:06;;;;;;;12.35;6.82;;;;;;;24.18;73.22;99917.72;5014672;28;102074;-78
2021/08/06 18:10:33;;;;;;;11.38;7.10;;;;;;;24.21;73.46;99918.94;5013967;28;102180;-76
2021/08/06 18:12:59;;;;;;;10.05;6.43;;;;;;;24.21;73.28;99928.06;5015489;28;102535;-78